Airport ID:KTSP
Update Time (UTC):29 JAN 20 07:20
Wind Speed (Knots):13
Wind Direction (Magnetic):270
Temperature (°C):4
Dew Point (°C):3
Humidity (%):88
Altimeter (inHg):30.21
Density Altitude (Feet):
Visibility (Miles):9
Clouds (Hundreds of feet):BKN012 OVC019
Present Weather:NO PRECIPITATION
METAR:METAR KTSP 290720Z AUTO 28013G18KT 9SM BKN012 OVC019 04/03 A3021 RMK AO2

The data displayed is for advisory purposes only and is not to be used for flight planning or operations.

This page is not automatically refreshed. Reload the page to see current data.